sensor_id;sensor_type;location;lat;lon;timestamp;P1;durP1;ratioP1;P2;durP2;ratioP2
72406;SDS011;60396;47.550;18.828;2023-08-06T00:00:07;14.73;;;7.47;;
72406;SDS011;60396;47.550;18.828;2023-08-06T00:02:35;15.15;;;7.78;;
72406;SDS011;60396;47.550;18.828;2023-08-06T00:05:03;14.65;;;7.53;;
72406;SDS011;60396;47.550;18.828;2023-08-06T00:07:31;14.17;;;6.67;;
72406;SDS011;60396;47.550;18.828;2023-08-06T00:09:59;13.95;;;7.28;;
72406;SDS011;60396;47.550;18.828;2023-08-06T00:12:27;13.35;;;7.28;;
72406;SDS011;60396;47.550;18.828;2023-08-06T00:14:55;16.65;;;8.27;;
72406;SDS011;60396;47.550;18.828;2023-08-06T00:17:22;14.80;;;7.35;;
72406;SDS011;60396;47.550;18.828;2023-08-06T00:19:50;14.27;;;8.03;;
72406;SDS011;60396;47.550;18.828;2023-08-06T00:22:18;12.63;;;7.12;;
72406;SDS011;60396;47.550;18.828;2023-08-06T00:24:45;14.50;;;7.40;;
72406;SDS011;60396;47.550;18.828;2023-08-06T00:27:13;14.48;;;7.40;;
72406;SDS011;60396;47.550;18.828;2023-08-06T00:29:41;15.30;;;7.57;;
72406;SDS011;60396;47.550;18.828;2023-08-06T00:32:08;14.07;;;6.83;;
72406;SDS011;60396;47.550;18.828;2023-08-06T00:34:36;13.65;;;6.90;;
72406;SDS011;60396;47.550;18.828;2023-08-06T00:37:04;14.02;;;7.00;;
72406;SDS011;60396;47.550;18.828;2023-08-06T00:39:31;15.32;;;7.68;;
72406;SDS011;60396;47.550;18.828;2023-08-06T00:41:59;12.25;;;6.72;;
72406;SDS011;60396;47.550;18.828;2023-08-06T00:44:27;12.87;;;6.60;;
72406;SDS011;60396;47.550;18.828;2023-08-06T00:46:55;12.43;;;6.60;;
72406;SDS011;60396;47.550;18.828;2023-08-06T00:49:23;11.93;;;6.40;;
72406;SDS011;60396;47.550;18.828;2023-08-06T00:51:51;11.77;;;6.03;;
72406;SDS011;60396;47.550;18.828;2023-08-06T00:54:19;11.88;;;6.32;;
72406;SDS011;60396;47.550;18.828;2023-08-06T00:56:47;12.73;;;6.10;;
72406;SDS011;60396;47.550;18.828;2023-08-06T00:59:14;12.57;;;6.93;;
72406;SDS011;60396;47.550;18.828;2023-08-06T01:01:42;12.70;;;6.40;;
72406;SDS011;60396;47.550;18.828;2023-08-06T01:04:11;12.80;;;6.75;;
72406;SDS011;60396;47.550;18.828;2023-08-06T01:06:52;11.90;;;6.85;;
72406;SDS011;60396;47.550;18.828;2023-08-06T01:17:36;11.25;;;5.93;;
72406;SDS011;60396;47.550;18.828;2023-08-06T01:20:04;12.23;;;6.35;;
72406;SDS011;60396;47.550;18.828;2023-08-06T01:22:32;12.77;;;6.43;;
72406;SDS011;60396;47.550;18.828;2023-08-06T01:24:59;13.10;;;6.78;;
72406;SDS011;60396;47.550;18.828;2023-08-06T01:27:32;12.32;;;7.00;;
72406;SDS011;60396;47.550;18.828;2023-08-06T01:30:03;12.32;;;6.18;;
72406;SDS011;60396;47.550;18.828;2023-08-06T01:32:36;12.20;;;6.72;;
72406;SDS011;60396;47.550;18.828;2023-08-06T01:35:06;11.50;;;5.67;;
72406;SDS011;60396;47.550;18.828;2023-08-06T01:37:34;11.50;;;6.35;;
72406;SDS011;60396;47.550;18.828;2023-08-06T01:40:21;13.60;;;6.50;;
72406;SDS011;60396;47.550;18.828;2023-08-06T01:42:49;10.93;;;5.70;;
72406;SDS011;60396;47.550;18.828;2023-08-06T01:45:17;11.00;;;5.50;;
72406;SDS011;60396;47.550;18.828;2023-08-06T01:47:44;13.17;;;5.90;;
72406;SDS011;60396;47.550;18.828;2023-08-06T01:50:12;13.77;;;5.72;;
72406;SDS011;60396;47.550;18.828;2023-08-06T01:52:40;11.75;;;5.85;;
72406;SDS011;60396;47.550;18.828;2023-08-06T01:55:07;8.90;;;3.83;;
72406;SDS011;60396;47.550;18.828;2023-08-06T01:57:35;10.00;;;4.87;;
72406;SDS011;60396;47.550;18.828;2023-08-06T02:00:03;9.53;;;4.43;;
72406;SDS011;60396;47.550;18.828;2023-08-06T02:02:38;11.65;;;5.05;;
72406;SDS011;60396;47.550;18.828;2023-08-06T02:05:09;10.20;;;4.82;;
72406;SDS011;60396;47.550;18.828;2023-08-06T02:07:39;9.95;;;4.70;;
72406;SDS011;60396;47.550;18.828;2023-08-06T02:10:06;11.15;;;4.72;;
72406;SDS011;60396;47.550;18.828;2023-08-06T02:12:35;8.57;;;4.17;;
72406;SDS011;60396;47.550;18.828;2023-08-06T02:15:03;10.30;;;4.82;;
72406;SDS011;60396;47.550;18.828;2023-08-06T02:17:31;10.45;;;4.70;;
72406;SDS011;60396;47.550;18.828;2023-08-06T02:19:59;9.65;;;4.57;;
72406;SDS011;60396;47.550;18.828;2023-08-06T02:22:26;8.95;;;4.43;;
72406;SDS011;60396;47.550;18.828;2023-08-06T02:24:54;9.73;;;4.10;;
72406;SDS011;60396;47.550;18.828;2023-08-06T02:27:22;10.05;;;3.78;;
72406;SDS011;60396;47.550;18.828;2023-08-06T02:29:49;7.80;;;3.40;;
72406;SDS011;60396;47.550;18.828;2023-08-06T02:32:17;9.43;;;4.12;;
72406;SDS011;60396;47.550;18.828;2023-08-06T02:34:44;8.88;;;4.10;;
72406;SDS011;60396;47.550;18.828;2023-08-06T02:37:13;14.63;;;4.23;;
72406;SDS011;60396;47.550;18.828;2023-08-06T02:39:41;10.40;;;4.82;;
72406;SDS011;60396;47.550;18.828;2023-08-06T02:42:09;8.48;;;3.55;;
72406;SDS011;60396;47.550;18.828;2023-08-06T02:44:36;9.95;;;4.43;;
72406;SDS011;60396;47.550;18.828;2023-08-06T02:47:04;8.93;;;3.58;;
72406;SDS011;60396;47.550;18.828;2023-08-06T02:49:32;10.00;;;4.40;;
72406;SDS011;60396;47.550;18.828;2023-08-06T02:52:00;8.77;;;3.20;;
72406;SDS011;60396;47.550;18.828;2023-08-06T02:54:28;9.02;;;4.00;;
72406;SDS011;60396;47.550;18.828;2023-08-06T02:56:56;10.20;;;3.30;;
72406;SDS011;60396;47.550;18.828;2023-08-06T02:59:24;7.87;;;3.47;;
72406;SDS011;60396;47.550;18.828;2023-08-06T03:01:52;7.27;;;2.87;;
72406;SDS011;60396;47.550;18.828;2023-08-06T03:04:20;10.00;;;3.35;;
72406;SDS011;60396;47.550;18.828;2023-08-06T03:06:49;9.48;;;3.45;;
72406;SDS011;60396;47.550;18.828;2023-08-06T03:09:18;11.77;;;3.05;;
72406;SDS011;60396;47.550;18.828;2023-08-06T03:11:47;9.48;;;3.70;;
72406;SDS011;60396;47.550;18.828;2023-08-06T03:14:15;8.63;;;3.27;;
72406;SDS011;60396;47.550;18.828;2023-08-06T03:16:43;8.60;;;2.90;;
72406;SDS011;60396;47.550;18.828;2023-08-06T03:19:11;9.63;;;3.08;;
72406;SDS011;60396;47.550;18.828;2023-08-06T03:21:39;10.35;;;3.53;;
72406;SDS011;60396;47.550;18.828;2023-08-06T03:24:07;8.85;;;3.55;;
72406;SDS011;60396;47.550;18.828;2023-08-06T03:26:35;8.47;;;3.33;;
72406;SDS011;60396;47.550;18.828;2023-08-06T03:29:02;11.10;;;3.72;;
72406;SDS011;60396;47.550;18.828;2023-08-06T03:31:32;10.90;;;4.10;;
72406;SDS011;60396;47.550;18.828;2023-08-06T03:34:00;10.23;;;4.35;;
72406;SDS011;60396;47.550;18.828;2023-08-06T03:36:28;12.50;;;5.20;;
72406;SDS011;60396;47.550;18.828;2023-08-06T03:38:57;14.13;;;6.07;;
72406;SDS011;60396;47.550;18.828;2023-08-06T03:41:24;11.55;;;6.07;;
72406;SDS011;60396;47.550;18.828;2023-08-06T03:43:52;11.80;;;5.50;;
72406;SDS011;60396;47.550;18.828;2023-08-06T03:46:20;12.55;;;5.18;;
72406;SDS011;60396;47.550;18.828;2023-08-06T03:48:48;12.13;;;5.62;;
72406;SDS011;60396;47.550;18.828;2023-08-06T03:51:16;11.07;;;4.93;;
72406;SDS011;60396;47.550;18.828;2023-08-06T03:53:45;9.73;;;4.95;;
72406;SDS011;60396;47.550;18.828;2023-08-06T03:56:12;10.15;;;4.82;;
72406;SDS011;60396;47.550;18.828;2023-08-06T03:58:40;12.07;;;3.90;;
72406;SDS011;60396;47.550;18.828;2023-08-06T04:01:08;7.60;;;3.12;;
72406;SDS011;60396;47.550;18.828;2023-08-06T04:03:37;7.57;;;2.87;;
72406;SDS011;60396;47.550;18.828;2023-08-06T04:06:04;8.52;;;2.03;;
72406;SDS011;60396;47.550;18.828;2023-08-06T04:08:33;5.90;;;2.00;;
72406;SDS011;60396;47.550;18.828;2023-08-06T04:11:02;6.78;;;1.50;;
72406;SDS011;60396;47.550;18.828;2023-08-06T04:13:30;5.43;;;1.20;;
72406;SDS011;60396;47.550;18.828;2023-08-06T04:16:02;6.47;;;2.10;;
72406;SDS011;60396;47.550;18.828;2023-08-06T04:18:30;6.97;;;2.22;;
72406;SDS011;60396;47.550;18.828;2023-08-06T04:20:58;11.75;;;2.70;;
72406;SDS011;60396;47.550;18.828;2023-08-06T04:23:25;9.27;;;2.90;;
72406;SDS011;60396;47.550;18.828;2023-08-06T04:25:57;7.37;;;2.47;;
72406;SDS011;60396;47.550;18.828;2023-08-06T04:28:25;4.93;;;1.70;;
72406;SDS011;60396;47.550;18.828;2023-08-06T04:30:53;4.50;;;1.42;;
72406;SDS011;60396;47.550;18.828;2023-08-06T04:33:21;6.07;;;1.27;;
72406;SDS011;60396;47.550;18.828;2023-08-06T04:35:53;4.07;;;0.95;;
72406;SDS011;60396;47.550;18.828;2023-08-06T04:38:23;4.22;;;1.10;;
72406;SDS011;60396;47.550;18.828;2023-08-06T04:40:52;4.50;;;0.80;;
72406;SDS011;60396;47.550;18.828;2023-08-06T04:43:21;4.28;;;1.02;;
72406;SDS011;60396;47.550;18.828;2023-08-06T04:45:49;3.62;;;0.90;;
72406;SDS011;60396;47.550;18.828;2023-08-06T04:48:18;3.87;;;0.88;;
72406;SDS011;60396;47.550;18.828;2023-08-06T04:50:46;3.62;;;0.70;;
72406;SDS011;60396;47.550;18.828;2023-08-06T04:53:15;3.53;;;0.53;;
72406;SDS011;60396;47.550;18.828;2023-08-06T04:55:43;2.58;;;0.40;;
72406;SDS011;60396;47.550;18.828;2023-08-06T04:58:11;2.70;;;0.57;;
72406;SDS011;60396;47.550;18.828;2023-08-06T05:00:39;5.75;;;0.62;;
72406;SDS011;60396;47.550;18.828;2023-08-06T05:03:07;1.58;;;0.30;;
72406;SDS011;60396;47.550;18.828;2023-08-06T05:05:35;1.50;;;0.30;;
72406;SDS011;60396;47.550;18.828;2023-08-06T05:08:03;1.58;;;0.40;;
72406;SDS011;60396;47.550;18.828;2023-08-06T05:10:30;2.33;;;0.47;;
72406;SDS011;60396;47.550;18.828;2023-08-06T05:13:01;2.03;;;0.30;;
72406;SDS011;60396;47.550;18.828;2023-08-06T05:15:29;1.25;;;0.30;;
72406;SDS011;60396;47.550;18.828;2023-08-06T05:17:56;1.27;;;0.20;;
72406;SDS011;60396;47.550;18.828;2023-08-06T05:20:24;0.80;;;0.20;;
72406;SDS011;60396;47.550;18.828;2023-08-06T05:22:52;0.77;;;0.20;;
72406;SDS011;60396;47.550;18.828;2023-08-06T05:25:20;0.90;;;0.20;;
72406;SDS011;60396;47.550;18.828;2023-08-06T05:27:47;1.83;;;0.20;;
72406;SDS011;60396;47.550;18.828;2023-08-06T05:30:15;0.70;;;0.20;;
72406;SDS011;60396;47.550;18.828;2023-08-06T05:32:42;0.60;;;0.20;;
72406;SDS011;60396;47.550;18.828;2023-08-06T05:35:10;1.52;;;0.20;;
72406;SDS011;60396;47.550;18.828;2023-08-06T05:37:38;1.33;;;0.20;;
72406;SDS011;60396;47.550;18.828;2023-08-06T05:40:06;0.90;;;0.30;;
72406;SDS011;60396;47.550;18.828;2023-08-06T05:42:35;0.60;;;0.20;;
72406;SDS011;60396;47.550;18.828;2023-08-06T05:45:03;0.75;;;0.20;;
72406;SDS011;60396;47.550;18.828;2023-08-06T05:47:31;0.80;;;0.17;;
72406;SDS011;60396;47.550;18.828;2023-08-06T05:49:58;1.95;;;0.20;;
72406;SDS011;60396;47.550;18.828;2023-08-06T05:52:26;1.33;;;0.20;;
72406;SDS011;60396;47.550;18.828;2023-08-06T05:54:54;0.90;;;0.20;;
72406;SDS011;60396;47.550;18.828;2023-08-06T05:57:22;3.53;;;0.25;;
72406;SDS011;60396;47.550;18.828;2023-08-06T05:59:50;4.03;;;0.40;;
72406;SDS011;60396;47.550;18.828;2023-08-06T06:02:17;1.25;;;0.30;;
72406;SDS011;60396;47.550;18.828;2023-08-06T06:04:46;1.70;;;0.30;;
72406;SDS011;60396;47.550;18.828;2023-08-06T06:07:14;1.47;;;0.30;;
72406;SDS011;60396;47.550;18.828;2023-08-06T06:09:41;2.03;;;0.30;;
72406;SDS011;60396;47.550;18.828;2023-08-06T06:12:09;3.45;;;0.30;;
72406;SDS011;60396;47.550;18.828;2023-08-06T06:14:37;2.65;;;0.30;;
72406;SDS011;60396;47.550;18.828;2023-08-06T06:17:05;1.05;;;0.30;;
72406;SDS011;60396;47.550;18.828;2023-08-06T06:19:32;1.40;;;0.30;;
72406;SDS011;60396;47.550;18.828;2023-08-06T06:22:00;1.37;;;0.50;;
72406;SDS011;60396;47.550;18.828;2023-08-06T06:24:28;1.80;;;0.35;;
72406;SDS011;60396;47.550;18.828;2023-08-06T06:26:55;3.05;;;0.32;;
72406;SDS011;60396;47.550;18.828;2023-08-06T06:29:23;2.80;;;0.43;;
72406;SDS011;60396;47.550;18.828;2023-08-06T06:31:51;5.53;;;0.30;;
72406;SDS011;60396;47.550;18.828;2023-08-06T06:34:19;1.48;;;0.40;;
72406;SDS011;60396;47.550;18.828;2023-08-06T06:36:47;2.33;;;0.35;;
72406;SDS011;60396;47.550;18.828;2023-08-06T06:39:15;1.42;;;0.40;;
72406;SDS011;60396;47.550;18.828;2023-08-06T06:41:43;2.90;;;0.40;;
72406;SDS011;60396;47.550;18.828;2023-08-06T06:44:14;1.70;;;0.43;;
72406;SDS011;60396;47.550;18.828;2023-08-06T06:46:42;1.70;;;0.50;;
72406;SDS011;60396;47.550;18.828;2023-08-06T06:49:10;1.30;;;0.30;;
72406;SDS011;60396;47.550;18.828;2023-08-06T06:51:37;4.20;;;0.50;;
72406;SDS011;60396;47.550;18.828;2023-08-06T06:54:06;3.08;;;0.50;;
72406;SDS011;60396;47.550;18.828;2023-08-06T06:56:34;0.93;;;0.30;;
72406;SDS011;60396;47.550;18.828;2023-08-06T06:59:02;1.85;;;0.40;;
72406;SDS011;60396;47.550;18.828;2023-08-06T07:01:30;1.27;;;0.40;;
72406;SDS011;60396;47.550;18.828;2023-08-06T07:03:58;1.92;;;0.40;;
72406;SDS011;60396;47.550;18.828;2023-08-06T07:06:25;1.67;;;0.40;;
72406;SDS011;60396;47.550;18.828;2023-08-06T07:08:53;3.67;;;0.40;;
72406;SDS011;60396;47.550;18.828;2023-08-06T07:11:21;1.42;;;0.30;;
72406;SDS011;60396;47.550;18.828;2023-08-06T07:13:49;1.27;;;0.30;;
72406;SDS011;60396;47.550;18.828;2023-08-06T07:16:17;0.73;;;0.20;;
72406;SDS011;60396;47.550;18.828;2023-08-06T07:18:45;1.45;;;0.30;;
72406;SDS011;60396;47.550;18.828;2023-08-06T07:21:12;1.13;;;0.20;;
72406;SDS011;60396;47.550;18.828;2023-08-06T07:23:40;3.87;;;0.40;;
72406;SDS011;60396;47.550;18.828;2023-08-06T07:26:08;3.33;;;0.20;;
72406;SDS011;60396;47.550;18.828;2023-08-06T07:28:36;0.90;;;0.20;;
72406;SDS011;60396;47.550;18.828;2023-08-06T07:31:04;1.05;;;0.30;;
72406;SDS011;60396;47.550;18.828;2023-08-06T07:33:35;0.80;;;0.20;;
72406;SDS011;60396;47.550;18.828;2023-08-06T07:36:10;1.58;;;0.30;;
72406;SDS011;60396;47.550;18.828;2023-08-06T07:38:38;0.90;;;0.30;;
72406;SDS011;60396;47.550;18.828;2023-08-06T07:41:06;1.60;;;0.20;;
72406;SDS011;60396;47.550;18.828;2023-08-06T07:43:34;1.00;;;0.30;;
72406;SDS011;60396;47.550;18.828;2023-08-06T07:46:03;3.23;;;0.20;;
72406;SDS011;60396;47.550;18.828;2023-08-06T07:48:31;0.80;;;0.20;;
72406;SDS011;60396;47.550;18.828;2023-08-06T07:50:58;1.17;;;0.20;;
72406;SDS011;60396;47.550;18.828;2023-08-06T07:53:27;1.83;;;0.30;;
72406;SDS011;60396;47.550;18.828;2023-08-06T07:55:56;2.95;;;0.20;;
72406;SDS011;60396;47.550;18.828;2023-08-06T07:58:24;1.40;;;0.30;;
72406;SDS011;60396;47.550;18.828;2023-08-06T08:00:53;1.12;;;0.20;;
72406;SDS011;60396;47.550;18.828;2023-08-06T08:03:21;1.35;;;0.30;;
72406;SDS011;60396;47.550;18.828;2023-08-06T08:05:48;5.05;;;0.52;;
72406;SDS011;60396;47.550;18.828;2023-08-06T08:08:16;0.90;;;0.20;;
72406;SDS011;60396;47.550;18.828;2023-08-06T08:10:44;1.97;;;0.20;;
72406;SDS011;60396;47.550;18.828;2023-08-06T08:13:12;0.80;;;0.20;;
72406;SDS011;60396;47.550;18.828;2023-08-06T08:15:40;0.73;;;0.20;;
72406;SDS011;60396;47.550;18.828;2023-08-06T08:18:07;1.15;;;0.20;;
72406;SDS011;60396;47.550;18.828;2023-08-06T08:20:35;1.33;;;0.20;;
72406;SDS011;60396;47.550;18.828;2023-08-06T08:23:03;3.80;;;0.20;;
72406;SDS011;60396;47.550;18.828;2023-08-06T08:25:31;1.05;;;0.20;;
72406;SDS011;60396;47.550;18.828;2023-08-06T08:27:59;0.88;;;0.20;;
72406;SDS011;60396;47.550;18.828;2023-08-06T08:30:26;1.48;;;0.22;;
72406;SDS011;60396;47.550;18.828;2023-08-06T08:32:54;3.55;;;0.88;;
72406;SDS011;60396;47.550;18.828;2023-08-06T08:35:22;3.87;;;0.20;;
72406;SDS011;60396;47.550;18.828;2023-08-06T08:37:50;1.75;;;0.20;;
72406;SDS011;60396;47.550;18.828;2023-08-06T08:40:18;6.78;;;0.35;;
72406;SDS011;60396;47.550;18.828;2023-08-06T08:42:47;1.62;;;0.20;;
72406;SDS011;60396;47.550;18.828;2023-08-06T08:45:14;1.85;;;0.30;;
72406;SDS011;60396;47.550;18.828;2023-08-06T08:47:42;1.10;;;0.30;;
72406;SDS011;60396;47.550;18.828;2023-08-06T08:50:10;1.87;;;0.40;;
72406;SDS011;60396;47.550;18.828;2023-08-06T08:52:39;2.75;;;0.30;;
72406;SDS011;60396;47.550;18.828;2023-08-06T08:55:08;1.40;;;0.30;;
72406;SDS011;60396;47.550;18.828;2023-08-06T08:57:36;3.30;;;0.30;;
72406;SDS011;60396;47.550;18.828;2023-08-06T09:00:04;1.47;;;0.40;;
72406;SDS011;60396;47.550;18.828;2023-08-06T09:02:33;3.05;;;0.37;;
72406;SDS011;60396;47.550;18.828;2023-08-06T09:05:01;3.35;;;0.50;;
72406;SDS011;60396;47.550;18.828;2023-08-06T09:07:33;1.15;;;0.30;;
72406;SDS011;60396;47.550;18.828;2023-08-06T09:10:03;2.58;;;0.40;;
72406;SDS011;60396;47.550;18.828;2023-08-06T09:12:32;1.30;;;0.20;;
72406;SDS011;60396;47.550;18.828;2023-08-06T09:15:00;0.88;;;0.20;;
72406;SDS011;60396;47.550;18.828;2023-08-06T09:17:31;1.30;;;0.40;;
72406;SDS011;60396;47.550;18.828;2023-08-06T09:19:59;3.33;;;0.40;;
72406;SDS011;60396;47.550;18.828;2023-08-06T09:22:33;2.58;;;0.40;;
72406;SDS011;60396;47.550;18.828;2023-08-06T09:25:01;2.27;;;0.50;;
72406;SDS011;60396;47.550;18.828;2023-08-06T09:27:31;2.33;;;0.50;;
72406;SDS011;60396;47.550;18.828;2023-08-06T09:29:58;1.37;;;0.40;;
72406;SDS011;60396;47.550;18.828;2023-08-06T09:32:26;1.30;;;0.37;;
72406;SDS011;60396;47.550;18.828;2023-08-06T09:34:57;1.83;;;0.50;;
72406;SDS011;60396;47.550;18.828;2023-08-06T09:37:27;2.33;;;0.40;;
72406;SDS011;60396;47.550;18.828;2023-08-06T09:40:03;1.50;;;0.40;;
72406;SDS011;60396;47.550;18.828;2023-08-06T09:42:31;2.67;;;0.37;;
72406;SDS011;60396;47.550;18.828;2023-08-06T09:45:05;1.73;;;0.50;;
72406;SDS011;60396;47.550;18.828;2023-08-06T09:47:34;1.62;;;0.50;;
72406;SDS011;60396;47.550;18.828;2023-08-06T09:50:01;1.70;;;0.40;;
72406;SDS011;60396;47.550;18.828;2023-08-06T09:52:29;3.58;;;0.50;;
72406;SDS011;60396;47.550;18.828;2023-08-06T09:54:57;1.55;;;0.40;;
72406;SDS011;60396;47.550;18.828;2023-08-06T09:57:24;2.78;;;0.37;;
72406;SDS011;60396;47.550;18.828;2023-08-06T09:59:52;1.73;;;0.40;;
72406;SDS011;60396;47.550;18.828;2023-08-06T10:02:20;0.93;;;0.20;;
72406;SDS011;60396;47.550;18.828;2023-08-06T10:04:52;2.60;;;0.30;;
72406;SDS011;60396;47.550;18.828;2023-08-06T10:07:22;3.67;;;0.30;;
72406;SDS011;60396;47.550;18.828;2023-08-06T10:09:51;3.35;;;0.30;;
72406;SDS011;60396;47.550;18.828;2023-08-06T10:12:19;1.35;;;0.40;;
72406;SDS011;60396;47.550;18.828;2023-08-06T10:14:46;1.67;;;0.40;;
72406;SDS011;60396;47.550;18.828;2023-08-06T10:17:15;1.35;;;0.30;;
72406;SDS011;60396;47.550;18.828;2023-08-06T10:19:43;1.45;;;0.40;;
72406;SDS011;60396;47.550;18.828;2023-08-06T10:24:45;1.65;;;0.40;;
72406;SDS011;60396;47.550;18.828;2023-08-06T10:32:54;1.45;;;0.30;;
72406;SDS011;60396;47.550;18.828;2023-08-06T10:35:33;1.40;;;0.30;;
72406;SDS011;60396;47.550;18.828;2023-08-06T10:38:08;1.55;;;0.30;;
72406;SDS011;60396;47.550;18.828;2023-08-06T10:40:39;1.60;;;0.37;;
72406;SDS011;60396;47.550;18.828;2023-08-06T10:43:07;1.55;;;0.40;;
72406;SDS011;60396;47.550;18.828;2023-08-06T10:45:36;2.50;;;0.40;;
72406;SDS011;60396;47.550;18.828;2023-08-06T10:48:05;1.83;;;0.37;;
72406;SDS011;60396;47.550;18.828;2023-08-06T10:50:33;1.73;;;0.40;;
72406;SDS011;60396;47.550;18.828;2023-08-06T10:53:04;1.30;;;0.30;;
72406;SDS011;60396;47.550;18.828;2023-08-06T10:55:33;2.30;;;0.50;;
72406;SDS011;60396;47.550;18.828;2023-08-06T10:58:01;1.90;;;0.50;;
72406;SDS011;60396;47.550;18.828;2023-08-06T11:00:29;1.58;;;0.40;;
72406;SDS011;60396;47.550;18.828;2023-08-06T11:02:57;2.03;;;0.50;;
72406;SDS011;60396;47.550;18.828;2023-08-06T11:05:25;2.13;;;0.33;;
72406;SDS011;60396;47.550;18.828;2023-08-06T11:07:53;2.17;;;0.40;;
72406;SDS011;60396;47.550;18.828;2023-08-06T11:10:21;1.55;;;0.40;;
72406;SDS011;60396;47.550;18.828;2023-08-06T11:12:48;1.77;;;0.47;;
72406;SDS011;60396;47.550;18.828;2023-08-06T11:15:16;1.87;;;0.40;;
72406;SDS011;60396;47.550;18.828;2023-08-06T11:17:44;1.33;;;0.30;;
72406;SDS011;60396;47.550;18.828;2023-08-06T11:20:12;1.55;;;0.40;;
72406;SDS011;60396;47.550;18.828;2023-08-06T11:22:44;2.33;;;0.50;;
72406;SDS011;60396;47.550;18.828;2023-08-06T11:25:11;1.90;;;0.40;;
72406;SDS011;60396;47.550;18.828;2023-08-06T11:27:39;1.80;;;0.40;;
72406;SDS011;60396;47.550;18.828;2023-08-06T11:30:07;3.40;;;0.60;;
72406;SDS011;60396;47.550;18.828;2023-08-06T11:32:44;2.12;;;0.57;;
72406;SDS011;60396;47.550;18.828;2023-08-06T11:35:14;1.62;;;0.40;;
72406;SDS011;60396;47.550;18.828;2023-08-06T11:37:45;1.60;;;0.40;;
72406;SDS011;60396;47.550;18.828;2023-08-06T11:40:14;1.80;;;0.55;;
72406;SDS011;60396;47.550;18.828;2023-08-06T11:42:42;2.50;;;0.50;;
72406;SDS011;60396;47.550;18.828;2023-08-06T11:45:10;2.45;;;0.50;;
72406;SDS011;60396;47.550;18.828;2023-08-06T11:47:38;1.60;;;0.40;;
72406;SDS011;60396;47.550;18.828;2023-08-06T11:50:09;1.85;;;0.40;;
72406;SDS011;60396;47.550;18.828;2023-08-06T11:52:52;1.87;;;0.50;;
72406;SDS011;60396;47.550;18.828;2023-08-06T11:55:27;2.47;;;0.50;;
72406;SDS011;60396;47.550;18.828;2023-08-06T11:57:56;1.95;;;0.50;;
72406;SDS011;60396;47.550;18.828;2023-08-06T12:00:25;1.87;;;0.40;;
72406;SDS011;60396;47.550;18.828;2023-08-06T12:02:54;2.03;;;0.50;;
72406;SDS011;60396;47.550;18.828;2023-08-06T12:05:23;6.12;;;0.50;;
72406;SDS011;60396;47.550;18.828;2023-08-06T12:07:52;2.53;;;0.50;;
72406;SDS011;60396;47.550;18.828;2023-08-06T12:10:21;2.87;;;0.47;;
72406;SDS011;60396;47.550;18.828;2023-08-06T12:12:50;1.95;;;0.50;;
72406;SDS011;60396;47.550;18.828;2023-08-06T12:15:18;2.45;;;0.43;;
72406;SDS011;60396;47.550;18.828;2023-08-06T12:17:46;2.60;;;0.70;;
72406;SDS011;60396;47.550;18.828;2023-08-06T12:20:14;2.10;;;0.60;;
72406;SDS011;60396;47.550;18.828;2023-08-06T12:22:42;2.67;;;0.85;;
72406;SDS011;60396;47.550;18.828;2023-08-06T12:25:10;3.33;;;1.23;;
72406;SDS011;60396;47.550;18.828;2023-08-06T12:27:42;3.03;;;0.60;;
72406;SDS011;60396;47.550;18.828;2023-08-06T12:32:57;3.17;;;0.70;;
72406;SDS011;60396;47.550;18.828;2023-08-06T12:35:25;3.35;;;0.77;;
72406;SDS011;60396;47.550;18.828;2023-08-06T12:37:53;2.60;;;0.60;;
72406;SDS011;60396;47.550;18.828;2023-08-06T12:40:21;2.25;;;0.62;;
72406;SDS011;60396;47.550;18.828;2023-08-06T12:43:02;3.05;;;0.80;;
72406;SDS011;60396;47.550;18.828;2023-08-06T12:45:30;2.70;;;0.90;;
72406;SDS011;60396;47.550;18.828;2023-08-06T12:47:57;3.80;;;0.90;;
72406;SDS011;60396;47.550;18.828;2023-08-06T12:50:25;2.83;;;0.90;;
72406;SDS011;60396;47.550;18.828;2023-08-06T12:52:53;3.15;;;0.85;;
72406;SDS011;60396;47.550;18.828;2023-08-06T12:55:21;2.95;;;0.98;;
72406;SDS011;60396;47.550;18.828;2023-08-06T12:57:48;8.70;;;1.00;;
72406;SDS011;60396;47.550;18.828;2023-08-06T13:00:26;3.22;;;0.80;;
72406;SDS011;60396;47.550;18.828;2023-08-06T13:02:54;4.18;;;1.10;;
72406;SDS011;60396;47.550;18.828;2023-08-06T13:05:22;3.17;;;0.95;;
72406;SDS011;60396;47.550;18.828;2023-08-06T13:07:50;4.45;;;1.00;;
72406;SDS011;60396;47.550;18.828;2023-08-06T13:10:17;3.60;;;1.10;;
72406;SDS011;60396;47.550;18.828;2023-08-06T13:12:45;2.78;;;0.90;;
72406;SDS011;60396;47.550;18.828;2023-08-06T13:15:12;3.10;;;1.00;;
72406;SDS011;60396;47.550;18.828;2023-08-06T13:17:42;6.95;;;1.30;;
72406;SDS011;60396;47.550;18.828;2023-08-06T13:20:09;3.00;;;0.90;;
72406;SDS011;60396;47.550;18.828;2023-08-06T13:22:37;5.03;;;0.97;;
72406;SDS011;60396;47.550;18.828;2023-08-06T13:25:05;3.55;;;0.90;;
72406;SDS011;60396;47.550;18.828;2023-08-06T13:27:33;5.20;;;1.50;;
72406;SDS011;60396;47.550;18.828;2023-08-06T13:30:01;4.65;;;1.48;;
72406;SDS011;60396;47.550;18.828;2023-08-06T13:32:30;3.42;;;1.30;;
72406;SDS011;60396;47.550;18.828;2023-08-06T13:35:00;3.73;;;1.30;;
72406;SDS011;60396;47.550;18.828;2023-08-06T13:37:27;5.50;;;1.35;;
72406;SDS011;60396;47.550;18.828;2023-08-06T13:39:55;4.75;;;1.45;;
72406;SDS011;60396;47.550;18.828;2023-08-06T13:42:23;4.85;;;1.20;;
72406;SDS011;60396;47.550;18.828;2023-08-06T13:44:51;3.58;;;1.48;;
72406;SDS011;60396;47.550;18.828;2023-08-06T13:47:19;4.03;;;1.47;;
72406;SDS011;60396;47.550;18.828;2023-08-06T13:49:47;4.37;;;1.50;;
72406;SDS011;60396;47.550;18.828;2023-08-06T13:52:15;5.45;;;1.35;;
72406;SDS011;60396;47.550;18.828;2023-08-06T13:54:49;4.18;;;1.40;;
72406;SDS011;60396;47.550;18.828;2023-08-06T13:57:16;4.68;;;1.58;;
72406;SDS011;60396;47.550;18.828;2023-08-06T13:59:47;3.43;;;1.23;;
72406;SDS011;60396;47.550;18.828;2023-08-06T14:02:15;4.10;;;1.40;;
72406;SDS011;60396;47.550;18.828;2023-08-06T14:04:43;4.12;;;1.40;;
72406;SDS011;60396;47.550;18.828;2023-08-06T14:07:11;4.03;;;1.30;;
72406;SDS011;60396;47.550;18.828;2023-08-06T14:09:38;4.37;;;1.10;;
72406;SDS011;60396;47.550;18.828;2023-08-06T14:12:07;3.90;;;1.20;;
72406;SDS011;60396;47.550;18.828;2023-08-06T14:14:35;4.53;;;1.08;;
72406;SDS011;60396;47.550;18.828;2023-08-06T14:17:02;4.70;;;1.50;;
72406;SDS011;60396;47.550;18.828;2023-08-06T14:19:31;4.35;;;1.20;;
72406;SDS011;60396;47.550;18.828;2023-08-06T14:21:59;3.12;;;1.10;;
72406;SDS011;60396;47.550;18.828;2023-08-06T14:24:26;4.70;;;1.10;;
72406;SDS011;60396;47.550;18.828;2023-08-06T14:26:54;3.72;;;1.05;;
72406;SDS011;60396;47.550;18.828;2023-08-06T14:29:22;3.58;;;1.25;;
72406;SDS011;60396;47.550;18.828;2023-08-06T14:31:50;3.45;;;1.02;;
72406;SDS011;60396;47.550;18.828;2023-08-06T14:34:19;3.70;;;1.20;;
72406;SDS011;60396;47.550;18.828;2023-08-06T14:36:46;3.40;;;1.13;;
72406;SDS011;60396;47.550;18.828;2023-08-06T14:39:14;3.47;;;1.15;;
72406;SDS011;60396;47.550;18.828;2023-08-06T14:41:42;4.90;;;1.00;;
72406;SDS011;60396;47.550;18.828;2023-08-06T14:44:10;3.10;;;0.90;;
72406;SDS011;60396;47.550;18.828;2023-08-06T14:46:39;3.12;;;0.98;;
72406;SDS011;60396;47.550;18.828;2023-08-06T14:49:07;4.13;;;0.80;;
72406;SDS011;60396;47.550;18.828;2023-08-06T14:51:35;8.13;;;1.37;;
72406;SDS011;60396;47.550;18.828;2023-08-06T14:54:02;3.30;;;1.10;;
72406;SDS011;60396;47.550;18.828;2023-08-06T14:56:30;3.17;;;0.95;;